This is the latest recevied weather packets stored in our database for station/object JG6YPS-13. If no packets are shown the sender has not sent any weather packets the latest 1 day(s).
| Time | Temp. | Humidity | Pressure | Rain* | Wind** | Luminosity | Snow |
|---|---|---|---|---|---|---|---|
| 1777991814 | 13.89° C | 81% | 1020 hPa | 0 mm | 0 m/s | - | - |
| 1777991215 | 13.89° C | 81% | 1020.1 hPa | 0 mm | 0 m/s | - | - |
| 1777990616 | 13.89° C | 81% | 1020.2 hPa | 0 mm | 0 m/s | - | - |
| 1777990017 | 13.89° C | 81% | 1020.2 hPa | 0 mm | 0 m/s | - | - |
| 1777989418 | 13.89° C | 81% | 1020.1 hPa | 0 mm | 0 m/s | - | - |
| 1777988818 | 13.89° C | 81% | 1020 hPa | 0 mm | 0 m/s | - | - |
| 1777988219 | 13.89° C | 80% | 1020.1 hPa | 0 mm | 0 m/s | - | - |
| 1777987620 | 13.89° C | 79% | 1020.1 hPa | 0 mm | 0 m/s | - | - |
| 1777987021 | 13.89° C | 80% | 1020.1 hPa | 0 mm | 0 m/s | - | - |
| 1777986422 | 13.89° C | 79% | 1020.1 hPa | 0 mm | 0 m/s | - | - |
| 1777985823 | 14.44° C | 77% | 1019.9 hPa | 0 mm | 0 m/s | - | - |
| 1777985224 | 14.44° C | 77% | 1019.9 hPa | 0 mm | 0 m/s | - | - |
| 1777984625 | 15° C | 75% | 1019.9 hPa | 0 mm | 0 m/s | - | - |
| 1777984025 | 15° C | 75% | 1019.6 hPa | 0 mm | 0 m/s | - | - |
| 1777983426 | 15° C | 73% | 1019.5 hPa | 0 mm | 0 m/s | - | - |
| 1777982827 | 15.56° C | 71% | 1019.5 hPa | 0 mm | 0 m/s | - | - |
| 1777982228 | 15.56° C | 71% | 1019.5 hPa | 0 mm | 0 m/s | - | - |
| 1777981628 | 16.11° C | 68% | 1019.4 hPa | 0 mm | 0 m/s | - | - |
| 1777981029 | 16.11° C | 68% | 1019.3 hPa | 0 mm | 0 m/s | - | - |
| 1777980430 | 16.11° C | 67% | 1019.2 hPa | 0 mm | 0 m/s | - | - |
| 1777979831 | 16.67° C | 64% | 1019 hPa | 0 mm | 0 m/s | - | - |
| 1777979231 | 16.67° C | 63% | 1018.9 hPa | 0 mm | 0.45 m/s, 180° | - | - |
| 1777978632 | 17.22° C | 63% | 1018.8 hPa | 0 mm | 0.45 m/s, 180° | - | - |
| 1777978033 | 17.78° C | 60% | 1018.6 hPa | 0 mm | 0 m/s | - | - |
| 1777977433 | 17.78° C | 58% | 1018.3 hPa | 0 mm | 0.45 m/s, 45° | - | - |
* Rain latest hour (hover to see other rain measurements)
** Current wind speed in m/s (hover to see current wind gust speed)